Time;durP1;ratioP1;P1;durP2;ratioP2;P2;SDS_P1;SDS_P2;PMS_P1;PMS_P2;Temp;Humidity;BMP_temperature;BMP_pressure;BME280_temperature;BME280_humidity;BME280_pressure;Samples;Min_cycle;Max_cycle;Signal;HPM_P1;HPM_P2
2021/01/04 00:00:15;;;;;;;22.05;8.98;;;;;;;;;;5039116;28;20687;-85
2021/01/04 00:02:57;;;;;;;13.50;8.60;;;;;;;;;;5037626;28;20026;-85
2021/01/04 00:05:39;;;;;;;14.57;7.90;;;;;;;;;;5060122;28;20017;-85
2021/01/04 00:08:09;;;;;;;13.57;7.68;;;;;;;;;;5042742;28;20033;-85
2021/01/04 00:10:44;;;;;;;16.17;8.10;;;;;;;;;;5022333;28;20026;-85
2021/01/04 00:13:27;;;;;;;18.25;9.13;;;;;;;;;;5032686;28;20120;-84
2021/01/04 00:16:02;;;;;;;18.48;8.98;;;;;;;;;;5039854;28;20518;-84
2021/01/04 00:18:36;;;;;;;19.33;9.88;;;;;;;;;;5043970;28;20021;-84
2021/01/04 00:21:07;;;;;;;16.10;11.02;;;;;;;;;;5035588;28;20102;-84
2021/01/04 00:23:45;;;;;;;18.03;9.73;;;;;;;;;;5030948;28;20088;-85
2021/01/04 00:26:11;;;;;;;15.30;9.82;;;;;;;;;;5031441;28;20120;-85
2021/01/04 00:28:38;;;;;;;16.60;9.48;;;;;;;;;;5032923;28;20059;-85
2021/01/04 00:31:13;;;;;;;17.45;10.60;;;;;;;;;;5036092;28;20085;-85
2021/01/04 00:33:41;;;;;;;18.55;10.63;;;;;;;;;;5048776;28;20054;-86
2021/01/04 00:36:29;;;;;;;14.23;9.75;;;;;;;;;;5039453;28;20526;-85
2021/01/04 00:39:14;;;;;;;20.10;10.80;;;;;;;;;;5043331;28;20018;-85
2021/01/04 00:41:51;;;;;;;19.27;9.57;;;;;;;;;;5033064;28;20124;-86
2021/01/04 00:44:21;;;;;;;18.52;9.63;;;;;;;;;;5043708;28;20108;-85
2021/01/04 00:46:52;;;;;;;15.45;9.52;;;;;;;;;;5048551;28;20110;-85
2021/01/04 00:49:28;;;;;;;21.80;12.05;;;;;;;;;;5045076;28;20029;-85
2021/01/04 00:52:01;;;;;;;19.67;12.05;;;;;;;;;;5042888;28;20037;-84
2021/01/04 00:54:37;;;;;;;17.58;11.43;;;;;;;;;;5058836;28;20025;-85
2021/01/04 00:57:21;;;;;;;17.55;9.48;;;;;;;;;;5045107;28;20034;-85
2021/01/04 00:59:47;;;;;;;18.95;11.73;;;;;;;;;;5058124;28;20033;-85
2021/01/04 01:02:19;;;;;;;20.92;12.23;;;;;;;;;;5024172;28;20057;-86
2021/01/04 01:04:51;;;;;;;18.77;12.15;;;;;;;;;;5043082;28;20042;-85
2021/01/04 01:07:43;;;;;;;21.48;13.65;;;;;;;;;;5028559;28;20029;-85
2021/01/04 01:10:09;;;;;;;;;;;;;;;;;;5036277;28;20030;-86
2021/01/04 01:12:44;;;;;;;22.55;11.50;;;;;;;;;;5045450;28;19909;-85
2021/01/04 01:15:19;;;;;;;21.45;12.73;;;;;;;;;;5036125;28;20083;-85
2021/01/04 01:18:00;;;;;;;18.65;10.98;;;;;;;;;;5031680;28;20032;-86
2021/01/04 01:20:27;;;;;;;20.85;10.98;;;;;;;;;;5034130;28;20307;-86
2021/01/04 01:22:54;;;;;;;18.50;12.35;;;;;;;;;;5031615;28;20052;-85
2021/01/04 01:25:23;;;;;;;20.20;11.93;;;;;;;;;;5042435;28;20173;-85
2021/01/04 01:27:58;;;;;;;20.63;11.85;;;;;;;;;;5055453;28;20111;-85
2021/01/04 01:30:33;;;;;;;24.08;12.70;;;;;;;;;;5051654;28;20037;-84
2021/01/04 01:33:09;;;;;;;24.48;11.70;;;;;;;;;;5043818;28;20026;-85
2021/01/04 01:35:47;;;;;;;20.65;11.05;;;;;;;;;;5048530;28;20049;-85
2021/01/04 01:38:16;;;;;;;21.95;12.30;;;;;;;;;;5032763;28;20025;-85
2021/01/04 01:41:05;;;;;;;18.00;9.68;;;;;;;;;;5048261;28;20025;-85
2021/01/04 01:43:38;;;;;;;20.85;11.27;;;;;;;;;;5034609;28;20029;-85
2021/01/04 01:46:23;;;;;;;20.20;11.35;;;;;;;;;;5050701;28;20317;-85
2021/01/04 01:48:58;;;;;;;19.50;12.18;;;;;;;;;;5042559;28;20079;-86
2021/01/04 01:51:42;;;;;;;21.58;10.93;;;;;;;;;;5043369;28;20029;-86
2021/01/04 01:54:27;;;;;;;22.50;12.13;;;;;;;;;;5031785;28;20021;-86
2021/01/04 01:56:59;;;;;;;19.95;12.35;;;;;;;;;;5017891;28;20029;-87
2021/01/04 01:59:35;;;;;;;19.45;11.20;;;;;;;;;;5028770;28;20025;-87
2021/01/04 02:02:02;;;;;;;19.67;10.75;;;;;;;;;;5026297;28;20016;-87
2021/01/04 02:04:34;;;;;;;22.77;11.27;;;;;;;;;;5034658;28;20021;-87
2021/01/04 02:07:03;;;;;;;20.48;10.68;;;;;;;;;;5040526;28;20021;-86
2021/01/04 02:09:31;;;;;;;19.63;11.13;;;;;;;;;;5033740;28;20020;-87
2021/01/04 02:12:10;;;;;;;17.50;12.35;;;;;;;;;;5037988;28;20028;-87
2021/01/04 02:14:41;;;;;;;20.17;10.93;;;;;;;;;;5035218;28;20021;-87
2021/01/04 02:17:07;;;;;;;;;;;;;;;;;;5026529;28;20056;-87
2021/01/04 02:19:42;;;;;;;19.95;12.32;;;;;;;;;;5044316;28;20458;-86
2021/01/04 02:22:11;;;;;;;18.38;10.57;;;;;;;;;;5037065;28;20098;-88
2021/01/04 02:24:37;;;;;;;17.27;10.85;;;;;;;;;;5031333;28;20227;-87
2021/01/04 02:27:10;;;;;;;17.95;11.63;;;;;;;;;;5033059;28;20111;-86
2021/01/04 02:29:36;;;;;;;19.40;11.00;;;;;;;;;;5046423;28;20031;-87
2021/01/04 02:32:04;;;;;;;19.98;10.52;;;;;;;;;;5032545;28;20087;-84
2021/01/04 02:34:32;;;;;;;20.85;12.13;;;;;;;;;;5044078;28;20025;-84
2021/01/04 02:36:59;;;;;;;19.15;11.65;;;;;;;;;;5026294;28;20106;-85
2021/01/04 02:39:28;;;;;;;18.23;10.95;;;;;;;;;;5045176;28;20024;-86
2021/01/04 02:42:03;;;;;;;21.23;11.15;;;;;;;;;;5046654;28;20029;-84
2021/01/04 02:44:30;;;;;;;18.73;11.95;;;;;;;;;;5041061;28;20022;-84
2021/01/04 02:47:08;;;;;;;17.65;10.57;;;;;;;;;;5026981;28;20024;-84
2021/01/04 02:49:53;;;;;;;23.50;10.82;;;;;;;;;;5034630;28;20029;-85
2021/01/04 02:52:25;;;;;;;19.60;10.35;;;;;;;;;;5033803;28;20048;-84
2021/01/04 02:54:55;;;;;;;21.90;11.30;;;;;;;;;;5033103;28;20051;-84
2021/01/04 02:57:44;;;;;;;16.77;10.05;;;;;;;;;;5047058;28;20458;-84
2021/01/04 03:00:14;;;;;;;19.80;10.52;;;;;;;;;;5038538;28;20033;-84
2021/01/04 03:02:44;;;;;;;21.27;9.57;;;;;;;;;;5032454;28;20391;-84
2021/01/04 03:05:12;;;;;;;17.65;10.90;;;;;;;;;;5032470;28;20032;-84
2021/01/04 03:07:38;;;;;;;17.65;9.93;;;;;;;;;;5021474;28;20036;-83
2021/01/04 03:10:14;;;;;;;20.30;10.65;;;;;;;;;;5038241;28;20072;-84
2021/01/04 03:12:40;;;;;;;14.23;10.00;;;;;;;;;;5029388;28;20032;-84
2021/01/04 03:15:10;;;;;;;18.25;10.10;;;;;;;;;;5041716;28;20017;-84
2021/01/04 03:17:39;;;;;;;16.98;10.40;;;;;;;;;;5031116;28;20514;-83
2021/01/04 03:20:08;;;;;;;16.02;9.95;;;;;;;;;;5032761;28;20029;-84
2021/01/04 03:22:34;;;;;;;13.48;9.57;;;;;;;;;;5032650;28;20044;-82
2021/01/04 03:25:00;;;;;;;17.50;10.48;;;;;;;;;;5024196;28;20486;-83
2021/01/04 03:27:29;;;;;;;15.45;8.85;;;;;;;;;;5047444;28;20040;-84
2021/01/04 03:29:55;;;;;;;15.30;9.85;;;;;;;;;;5024657;28;20030;-82
2021/01/04 03:32:21;;;;;;;15.20;10.00;;;;;;;;;;5051408;28;20056;-82
2021/01/04 03:34:49;;;;;;;14.95;9.07;;;;;;;;;;5037427;28;20024;-84
2021/01/04 03:37:15;;;;;;;16.08;10.10;;;;;;;;;;5028366;28;20033;-83
2021/01/04 03:39:42;;;;;;;15.52;9.63;;;;;;;;;;5030877;28;20029;-83
2021/01/04 03:42:08;;;;;;;17.48;10.10;;;;;;;;;;5049904;28;20021;-84
2021/01/04 03:44:34;;;;;;;16.50;9.93;;;;;;;;;;5050297;28;20029;-84
2021/01/04 03:47:00;;;;;;;16.85;8.65;;;;;;;;;;5042421;28;20076;-85
2021/01/04 03:49:27;;;;;;;16.80;9.35;;;;;;;;;;5040263;28;20345;-85
2021/01/04 03:51:54;;;;;;;16.58;8.95;;;;;;;;;;5031330;28;20021;-85
2021/01/04 03:54:20;;;;;;;16.80;10.00;;;;;;;;;;5025731;28;20040;-83
2021/01/04 03:56:46;;;;;;;17.08;10.52;;;;;;;;;;5029625;28;20086;-84
2021/01/04 03:59:13;;;;;;;20.10;11.25;;;;;;;;;;5022502;28;20124;-85
2021/01/04 04:01:39;;;;;;;19.63;9.63;;;;;;;;;;5024110;28;20017;-84
2021/01/04 04:04:05;;;;;;;13.13;8.55;;;;;;;;;;5032775;28;20382;-84
2021/01/04 04:06:31;;;;;;;14.13;8.23;;;;;;;;;;5045320;28;20497;-83
2021/01/04 04:08:57;;;;;;;14.23;7.70;;;;;;;;;;5045041;28;20438;-85
2021/01/04 04:11:23;;;;;;;13.10;8.25;;;;;;;;;;5049366;28;20029;-84
2021/01/04 04:13:49;;;;;;;13.30;7.07;;;;;;;;;;5051000;28;20033;-84
2021/01/04 04:16:15;;;;;;;15.18;8.43;;;;;;;;;;5041342;28;20072;-84
2021/01/04 04:18:41;;;;;;;14.00;8.98;;;;;;;;;;5032110;28;20032;-83
2021/01/04 04:21:07;;;;;;;14.18;7.72;;;;;;;;;;5043145;28;20017;-84
2021/01/04 04:23:33;;;;;;;11.30;7.63;;;;;;;;;;5038231;28;20029;-85
2021/01/04 04:25:59;;;;;;;12.95;7.93;;;;;;;;;;5051834;28;20021;-85
2021/01/04 04:28:25;;;;;;;14.70;7.40;;;;;;;;;;5025101;28;20044;-85
2021/01/04 04:30:52;;;;;;;12.00;8.07;;;;;;;;;;5032636;28;20031;-85
2021/01/04 04:33:18;;;;;;;14.20;8.05;;;;;;;;;;5037330;28;20027;-85
2021/01/04 04:35:44;;;;;;;17.02;7.35;;;;;;;;;;5034710;28;20045;-85
2021/01/04 04:38:10;;;;;;;13.13;7.40;;;;;;;;;;5032308;28;20022;-84
2021/01/04 04:40:36;;;;;;;11.73;7.22;;;;;;;;;;5038275;28;20017;-85
2021/01/04 04:43:10;;;;;;;13.48;8.23;;;;;;;;;;5049949;28;20507;-85
2021/01/04 04:45:37;;;;;;;12.93;7.95;;;;;;;;;;5047469;28;20078;-84
2021/01/04 04:48:19;;;;;;;13.40;7.85;;;;;;;;;;5031135;28;20186;-84
2021/01/04 04:51:04;;;;;;;10.25;8.02;;;;;;;;;;5060626;28;20037;-85
2021/01/04 04:53:50;;;;;;;13.50;8.30;;;;;;;;;;5038101;28;20105;-84
2021/01/04 04:56:22;;;;;;;11.95;7.90;;;;;;;;;;5047029;28;20021;-84
2021/01/04 04:58:48;;;;;;;;;;;;;;;;;;5040914;28;20033;-84
2021/01/04 05:01:14;;;;;;;11.68;8.18;;;;;;;;;;5030681;28;20002;-83
2021/01/04 05:03:46;;;;;;;12.10;7.47;;;;;;;;;;5026458;28;20045;-83
2021/01/04 05:06:21;;;;;;;12.48;7.40;;;;;;;;;;5045800;28;20521;-85
2021/01/04 05:08:50;;;;;;;13.82;6.63;;;;;;;;;;5047014;28;20078;-85
2021/01/04 05:11:21;;;;;;;16.00;8.32;;;;;;;;;;5026957;28;20057;-84
2021/01/04 05:13:50;;;;;;;15.65;8.48;;;;;;;;;;5027680;28;20036;-84
2021/01/04 05:16:19;;;;;;;14.65;9.27;;;;;;;;;;5047861;28;20029;-88
2021/01/04 05:19:04;;;;;;;15.48;7.18;;;;;;;;;;5052103;28;20517;-85
2021/01/04 05:21:47;;;;;;;12.20;8.00;;;;;;;;;;5053573;28;20116;-84
2021/01/04 05:24:32;;;;;;;13.38;8.32;;;;;;;;;;5024472;28;20055;-87
2021/01/04 05:26:58;;;;;;;13.18;7.93;;;;;;;;;;5024182;28;20113;-86
2021/01/04 05:29:30;;;;;;;13.57;7.25;;;;;;;;;;5045135;28;20052;-87
2021/01/04 05:32:03;;;;;;;12.10;7.32;;;;;;;;;;5027030;28;20036;-87
2021/01/04 05:34:41;;;;;;;17.13;8.32;;;;;;;;;;5047184;28;20422;-87
2021/01/04 05:37:21;;;;;;;15.45;8.57;;;;;;;;;;5043629;28;20067;-87
2021/01/04 05:40:03;;;;;;;15.63;7.40;;;;;;;;;;5035868;28;20135;-88
2021/01/04 05:42:42;;;;;;;15.30;8.80;;;;;;;;;;5041805;28;20017;-87
2021/01/04 05:45:11;;;;;;;18.90;9.20;;;;;;;;;;5049013;28;20032;-89
2021/01/04 05:47:56;;;;;;;15.02;8.93;;;;;;;;;;5041646;28;20080;-87
2021/01/04 05:50:24;;;;;;;15.65;9.73;;;;;;;;;;5037454;28;20120;-87
2021/01/04 05:52:54;;;;;;;15.25;9.70;;;;;;;;;;5050221;28;20483;-87
2021/01/04 05:55:21;;;;;;;17.88;10.90;;;;;;;;;;5055208;28;20033;-86
2021/01/04 05:57:47;;;;;;;14.90;11.35;;;;;;;;;;5039274;28;20052;-87
2021/01/04 06:00:14;;;;;;;14.38;10.10;;;;;;;;;;5043158;28;20539;-88
2021/01/04 06:02:40;;;;;;;15.25;10.13;;;;;;;;;;5048688;28;20024;-87
2021/01/04 06:05:17;;;;;;;14.48;10.10;;;;;;;;;;5043421;28;20536;-85
2021/01/04 06:07:44;;;;;;;14.43;8.55;;;;;;;;;;5031927;28;20036;-83
2021/01/04 06:10:18;;;;;;;10.75;7.70;;;;;;;;;;5031574;28;20029;-83
2021/01/04 06:12:46;;;;;;;11.95;8.48;;;;;;;;;;5050748;28;20368;-83
2021/01/04 06:15:12;;;;;;;16.65;9.75;;;;;;;;;;5042870;28;20078;-85
2021/01/04 06:17:44;;;;;;;13.35;8.80;;;;;;;;;;5039516;28;20112;-84
2021/01/04 06:20:13;;;;;;;16.05;10.55;;;;;;;;;;5038452;28;20029;-85
2021/01/04 06:22:41;;;;;;;12.77;9.15;;;;;;;;;;5041170;28;20068;-85
2021/01/04 06:25:08;;;;;;;15.77;9.07;;;;;;;;;;5028454;28;20090;-85
2021/01/04 06:27:37;;;;;;;16.85;9.73;;;;;;;;;;5016975;28;20032;-85
2021/01/04 06:30:15;;;;;;;19.27;11.38;;;;;;;;;;5036655;28;20127;-85
2021/01/04 06:32:42;;;;;;;19.80;12.35;;;;;;;;;;5038966;28;20052;-85
2021/01/04 06:35:17;;;;;;;13.82;10.38;;;;;;;;;;5036399;28;20028;-85
2021/01/04 06:37:43;;;;;;;18.80;11.63;;;;;;;;;;5016294;28;20136;-85
2021/01/04 06:40:19;;;;;;;19.63;10.93;;;;;;;;;;5041409;28;20029;-85
2021/01/04 06:42:45;;;;;;;19.17;13.55;;;;;;;;;;5032364;28;20147;-85
2021/01/04 06:45:17;;;;;;;22.08;13.35;;;;;;;;;;5038411;28;20036;-85
2021/01/04 06:47:46;;;;;;;19.92;13.75;;;;;;;;;;5035725;28;20039;-86
2021/01/04 06:50:18;;;;;;;20.13;11.43;;;;;;;;;;5019957;28;20043;-86
2021/01/04 06:52:53;;;;;;;18.15;12.77;;;;;;;;;;5019448;28;21813;-86
2021/01/04 06:55:38;;;;;;;17.98;11.13;;;;;;;;;;5039239;28;20025;-84
2021/01/04 06:58:04;;;;;;;16.67;12.13;;;;;;;;;;5030952;28;20094;-84
2021/01/04 07:00:30;;;;;;;15.60;9.25;;;;;;;;;;5016404;28;20424;-85
2021/01/04 07:02:59;;;;;;;16.00;9.60;;;;;;;;;;5040278;28;20392;-85
2021/01/04 07:05:39;;;;;;;16.88;10.05;;;;;;;;;;5040021;28;20033;-85
2021/01/04 07:08:11;;;;;;;14.07;9.18;;;;;;;;;;5043232;28;20029;-85
2021/01/04 07:10:40;;;;;;;14.05;9.52;;;;;;;;;;5028375;28;20033;-86
2021/01/04 07:13:11;;;;;;;12.63;8.85;;;;;;;;;;5032920;28;20033;-86
2021/01/04 07:15:43;;;;;;;14.90;9.87;;;;;;;;;;5033411;28;20036;-86
2021/01/04 07:18:28;;;;;;;15.38;10.60;;;;;;;;;;5035762;28;20277;-86
2021/01/04 07:21:15;;;;;;;18.15;11.32;;;;;;;;;;5045786;28;20025;-85
2021/01/04 07:24:04;;;;;;;17.33;9.65;;;;;;;;;;5060051;28;20028;-87
2021/01/04 07:26:49;;;;;;;14.23;10.13;;;;;;;;;;5035242;28;20029;-86
2021/01/04 07:29:33;;;;;;;14.80;9.43;;;;;;;;;;5046086;28;20040;-87
2021/01/04 07:31:59;;;;;;;16.65;10.45;;;;;;;;;;5044035;28;20032;-85
2021/01/04 07:34:28;;;;;;;16.23;9.57;;;;;;;;;;5059420;28;20033;-87
2021/01/04 07:36:54;;;;;;;17.23;10.02;;;;;;;;;;5049662;28;20122;-87
2021/01/04 07:39:44;;;;;;;16.40;10.07;;;;;;;;;;5052779;28;20071;-87
2021/01/04 07:42:29;;;;;;;13.95;9.07;;;;;;;;;;5046188;28;20047;-87
2021/01/04 07:45:24;;;;;;;13.93;9.10;;;;;;;;;;5059526;28;20070;-87
2021/01/04 07:47:56;;;;;;;16.48;9.07;;;;;;;;;;5044680;28;20537;-88
2021/01/04 07:50:25;;;;;;;14.18;9.35;;;;;;;;;;5040629;28;20032;-87
2021/01/04 07:53:05;;;;;;;17.20;9.43;;;;;;;;;;5056753;28;20028;-88
2021/01/04 07:55:34;;;;;;;15.70;8.68;;;;;;;;;;5052702;28;20036;-87
2021/01/04 07:58:06;;;;;;;14.95;9.38;;;;;;;;;;5034936;28;20025;-86
2021/01/04 08:00:44;;;;;;;14.98;7.93;;;;;;;;;;5050841;28;20025;-87
2021/01/04 08:03:29;;;;;;;17.52;10.27;;;;;;;;;;5050495;28;20090;-87
2021/01/04 08:06:11;;;;;;;15.85;8.20;;;;;;;;;;5036249;28;20067;-86
2021/01/04 08:08:37;;;;;;;;;;;;;;;;;;5036404;28;20499;-87
2021/01/04 08:11:23;;;;;;;17.00;9.40;;;;;;;;;;5035452;28;19935;-86
2021/01/04 08:14:08;;;;;;;16.73;11.00;;;;;;;;;;5045227;28;20032;-85
2021/01/04 08:16:40;;;;;;;15.02;9.27;;;;;;;;;;5055054;28;20028;-86
2021/01/04 08:19:08;;;;;;;15.13;9.18;;;;;;;;;;5056329;28;20025;-87
2021/01/04 08:21:53;;;;;;;15.63;9.98;;;;;;;;;;5052490;28;20025;-84
2021/01/04 08:24:22;;;;;;;15.85;9.63;;;;;;;;;;5064776;28;20078;-86
2021/01/04 08:27:07;;;;;;;14.75;10.15;;;;;;;;;;5048648;28;20020;-85
2021/01/04 08:29:39;;;;;;;15.57;9.65;;;;;;;;;;5036197;28;20269;-84
2021/01/04 08:32:23;;;;;;;16.17;9.63;;;;;;;;;;5052627;28;20028;-84
2021/01/04 08:34:49;;;;;;;15.55;9.70;;;;;;;;;;5042225;28;20116;-85
2021/01/04 08:37:18;;;;;;;15.25;9.48;;;;;;;;;;5043287;28;20154;-85
2021/01/04 08:39:50;;;;;;;17.55;9.85;;;;;;;;;;5049639;28;20012;-85
2021/01/04 08:42:20;;;;;;;15.85;9.25;;;;;;;;;;5052123;28;20021;-85
2021/01/04 08:44:57;;;;;;;15.93;10.00;;;;;;;;;;5051521;28;20028;-86
2021/01/04 08:47:46;;;;;;;14.25;7.95;;;;;;;;;;5029106;28;20028;-84
2021/01/04 08:50:17;;;;;;;16.35;8.93;;;;;;;;;;5051363;28;20582;-84
2021/01/04 08:52:45;;;;;;;15.18;8.80;;;;;;;;;;5044667;28;20028;-84
2021/01/04 08:55:12;;;;;;;14.98;9.77;;;;;;;;;;5045769;28;20083;-85
2021/01/04 08:57:43;;;;;;;15.23;9.63;;;;;;;;;;5051559;28;20095;-85
2021/01/04 09:00:18;;;;;;;16.95;7.80;;;;;;;;;;5032537;28;20022;-86
2021/01/04 09:02:44;;;;;;;12.60;7.28;;;;;;;;;;5031069;28;20031;-87
2021/01/04 09:05:15;;;;;;;12.95;8.35;;;;;;;;;;5048267;28;20104;-84
2021/01/04 09:07:49;;;;;;;17.27;8.55;;;;;;;;;;5050371;28;20023;-84
2021/01/04 09:10:18;;;;;;;14.35;8.60;;;;;;;;;;5049620;28;20063;-83
2021/01/04 09:12:46;;;;;;;13.52;9.43;;;;;;;;;;5034378;28;20020;-84
2021/01/04 09:15:22;;;;;;;12.77;8.35;;;;;;;;;;5029070;28;20043;-84
2021/01/04 09:17:50;;;;;;;15.60;7.95;;;;;;;;;;5030424;28;20518;-83
2021/01/04 09:20:19;;;;;;;14.77;8.32;;;;;;;;;;5042934;28;20021;-82
2021/01/04 09:22:49;;;;;;;12.73;8.50;;;;;;;;;;5029731;28;20020;-82
2021/01/04 09:25:23;;;;;;;16.30;8.68;;;;;;;;;;5049198;28;20515;-83
2021/01/04 09:27:50;;;;;;;14.65;7.65;;;;;;;;;;5026824;28;20411;-85
2021/01/04 09:30:20;;;;;;;12.10;7.22;;;;;;;;;;5032946;28;20464;-86
2021/01/04 09:32:47;;;;;;;11.88;7.47;;;;;;;;;;5033039;28;20017;-85
2021/01/04 09:35:18;;;;;;;12.90;7.65;;;;;;;;;;5040906;28;20060;-84
2021/01/04 09:37:45;;;;;;;11.25;7.13;;;;;;;;;;5043977;28;20040;-85
2021/01/04 09:40:13;;;;;;;10.48;6.53;;;;;;;;;;5054581;28;20111;-85
2021/01/04 09:42:39;;;;;;;12.32;7.35;;;;;;;;;;5042970;28;20049;-85
2021/01/04 09:45:10;;;;;;;15.82;7.63;;;;;;;;;;5029773;28;20060;-86
2021/01/04 09:47:38;;;;;;;12.30;7.13;;;;;;;;;;5045545;28;20098;-86
2021/01/04 09:50:15;;;;;;;12.98;7.50;;;;;;;;;;5047613;28;20087;-85
2021/01/04 09:52:52;;;;;;;11.55;7.28;;;;;;;;;;5032420;28;20147;-85
2021/01/04 09:55:21;;;;;;;13.95;8.00;;;;;;;;;;5047209;28;20052;-84
2021/01/04 09:57:47;;;;;;;12.90;7.22;;;;;;;;;;5031785;28;20494;-84
2021/01/04 10:00:18;;;;;;;14.55;6.20;;;;;;;;;;5032868;28;20029;-83
2021/01/04 10:02:44;;;;;;;13.82;8.32;;;;;;;;;;5042550;28;20091;-83
2021/01/04 10:05:12;;;;;;;12.50;8.02;;;;;;;;;;5050084;28;20017;-83
2021/01/04 10:07:38;;;;;;;12.10;7.50;;;;;;;;;;5049178;28;20036;-83
2021/01/04 10:10:09;;;;;;;12.95;7.53;;;;;;;;;;5029269;28;20041;-83
2021/01/04 10:12:36;;;;;;;12.55;8.10;;;;;;;;;;5030999;28;20122;-84
2021/01/04 10:15:03;;;;;;;11.25;7.25;;;;;;;;;;5032902;28;20087;-86
2021/01/04 10:17:32;;;;;;;13.90;8.25;;;;;;;;;;5032246;28;20510;-83
2021/01/04 10:20:00;;;;;;;11.27;7.70;;;;;;;;;;5042437;28;20108;-83
2021/01/04 10:22:26;;;;;;;11.73;6.57;;;;;;;;;;5034253;28;20028;-84
2021/01/04 10:25:07;;;;;;;12.00;6.85;;;;;;;;;;5032643;28;20041;-85
2021/01/04 10:27:33;;;;;;;13.48;8.18;;;;;;;;;;5040929;28;20069;-82
2021/01/04 10:30:00;;;;;;;13.48;7.90;;;;;;;;;;5049279;28;20053;-85
2021/01/04 10:32:33;;;;;;;12.35;7.75;;;;;;;;;;5031574;28;20098;-85
2021/01/04 10:35:00;;;;;;;13.02;7.80;;;;;;;;;;5031301;28;20082;-86
2021/01/04 10:37:34;;;;;;;12.55;8.35;;;;;;;;;;5028181;28;20072;-84
2021/01/04 10:40:01;;;;;;;12.00;7.15;;;;;;;;;;5033432;28;20024;-84
2021/01/04 10:42:28;;;;;;;14.23;7.85;;;;;;;;;;5032738;28;20079;-84
2021/01/04 10:45:02;;;;;;;14.43;7.90;;;;;;;;;;5032450;28;20021;-83
2021/01/04 10:47:30;;;;;;;12.68;8.20;;;;;;;;;;5042989;28;20116;-83
2021/01/04 10:50:07;;;;;;;16.10;9.60;;;;;;;;;;5028133;28;20028;-84
2021/01/04 10:52:33;;;;;;;15.60;9.35;;;;;;;;;;5048775;28;20025;-84
2021/01/04 10:54:59;;;;;;;16.83;8.90;;;;;;;;;;5046363;28;20474;-87
2021/01/04 10:57:28;;;;;;;15.23;8.38;;;;;;;;;;5027139;28;20041;-85
2021/01/04 11:00:04;;;;;;;13.57;8.18;;;;;;;;;;5045114;28;20027;-86
2021/01/04 11:02:43;;;;;;;13.25;7.53;;;;;;;;;;5041268;28;20053;-84
2021/01/04 11:05:09;;;;;;;13.07;8.13;;;;;;;;;;5039950;28;20021;-84
2021/01/04 11:07:36;;;;;;;13.30;7.60;;;;;;;;;;5026657;28;20036;-85
2021/01/04 11:10:22;;;;;;;13.52;7.40;;;;;;;;;;5048611;28;20490;-84
2021/01/04 11:12:53;;;;;;;12.68;7.13;;;;;;;;;;5042463;28;20026;-84
2021/01/04 11:15:24;;;;;;;11.50;7.10;;;;;;;;;;5045322;28;20036;-84
2021/01/04 11:18:09;;;;;;;10.95;8.05;;;;;;;;;;5040622;28;20037;-84
2021/01/04 11:20:35;;;;;;;12.80;8.48;;;;;;;;;;5036563;28;20025;-84
2021/01/04 11:23:03;;;;;;;13.15;7.53;;;;;;;;;;5049681;28;20402;-85
2021/01/04 11:25:29;;;;;;;12.43;8.38;;;;;;;;;;5051707;28;20040;-81
2021/01/04 11:27:55;;;;;;;14.13;8.93;;;;;;;;;;5049517;28;20028;-83
2021/01/04 11:30:21;;;;;;;13.30;7.85;;;;;;;;;;5031074;28;20029;-83
2021/01/04 11:32:47;;;;;;;13.35;9.15;;;;;;;;;;5050367;28;20069;-84
2021/01/04 11:35:14;;;;;;;14.60;7.25;;;;;;;;;;5046864;28;20119;-85
2021/01/04 11:37:40;;;;;;;12.55;8.00;;;;;;;;;;5032750;28;20037;-87
2021/01/04 11:40:06;;;;;;;11.40;7.85;;;;;;;;;;5033176;28;20035;-87
2021/01/04 11:42:32;;;;;;;14.48;7.95;;;;;;;;;;5033417;28;20025;-87
2021/01/04 11:44:58;;;;;;;13.30;7.32;;;;;;;;;;5050051;28;20113;-86
2021/01/04 11:47:24;;;;;;;15.18;7.72;;;;;;;;;;5048623;28;20059;-87
2021/01/04 11:49:50;;;;;;;9.52;6.10;;;;;;;;;;5052782;28;20469;-86
2021/01/04 11:52:16;;;;;;;12.40;8.27;;;;;;;;;;5041994;28;20037;-86
2021/01/04 11:54:43;;;;;;;12.15;7.78;;;;;;;;;;5048289;28;20418;-86
2021/01/04 11:57:10;;;;;;;13.77;7.60;;;;;;;;;;5047338;28;20030;-83
2021/01/04 11:59:36;;;;;;;13.65;8.52;;;;;;;;;;5034679;28;20052;-83
2021/01/04 12:02:02;;;;;;;15.35;8.80;;;;;;;;;;5036340;28;20037;-84
2021/01/04 12:04:28;;;;;;;14.93;8.18;;;;;;;;;;5053740;28;20029;-82
2021/01/04 12:06:54;;;;;;;13.18;8.23;;;;;;;;;;5039185;28;20029;-84
2021/01/04 12:09:20;;;;;;;14.27;7.95;;;;;;;;;;5053776;28;20028;-82
2021/01/04 12:11:48;;;;;;;14.57;8.75;;;;;;;;;;5034237;28;20120;-82
2021/01/04 12:14:14;;;;;;;15.98;7.68;;;;;;;;;;5035474;28;20027;-83
2021/01/04 12:16:40;;;;;;;11.02;7.00;;;;;;;;;;5032203;28;20026;-85
2021/01/04 12:19:07;;;;;;;12.70;7.57;;;;;;;;;;5033530;28;20063;-84
2021/01/04 12:21:33;;;;;;;14.18;9.07;;;;;;;;;;5048075;28;20024;-82
2021/01/04 12:24:00;;;;;;;20.10;9.60;;;;;;;;;;5047748;28;21379;-86
2021/01/04 12:26:26;;;;;;;13.80;8.30;;;;;;;;;;5047475;28;20021;-83
2021/01/04 12:28:52;;;;;;;18.23;10.00;;;;;;;;;;5034836;28;20033;-82
2021/01/04 12:31:19;;;;;;;15.73;9.80;;;;;;;;;;5028913;28;20499;-82
2021/01/04 12:33:45;;;;;;;16.23;9.68;;;;;;;;;;5047381;28;20060;-81
2021/01/04 12:36:15;;;;;;;13.80;10.43;;;;;;;;;;5030874;28;20047;-84
2021/01/04 12:38:41;;;;;;;17.80;10.48;;;;;;;;;;5030155;28;20021;-84
2021/01/04 12:41:08;;;;;;;17.67;10.95;;;;;;;;;;5024651;28;20091;-82
2021/01/04 12:43:34;;;;;;;18.08;9.93;;;;;;;;;;5033603;28;20033;-83
2021/01/04 12:46:00;;;;;;;15.95;11.50;;;;;;;;;;5028117;28;20025;-82
2021/01/04 12:48:26;;;;;;;15.90;10.40;;;;;;;;;;5025625;28;20026;-83
2021/01/04 12:50:52;;;;;;;17.48;10.25;;;;;;;;;;5035950;28;20050;-84
2021/01/04 12:53:18;;;;;;;19.50;10.07;;;;;;;;;;5047172;28;20029;-83
2021/01/04 12:55:44;;;;;;;20.55;9.45;;;;;;;;;;5041036;28;20044;-83
2021/01/04 12:58:10;;;;;;;12.25;9.57;;;;;;;;;;5045901;28;20161;-83
2021/01/04 13:00:37;;;;;;;17.25;10.35;;;;;;;;;;5047680;28;20041;-82
2021/01/04 13:03:04;;;;;;;17.35;9.65;;;;;;;;;;5055643;28;20038;-83
2021/01/04 13:05:31;;;;;;;14.55;9.45;;;;;;;;;;5051493;28;20029;-83
2021/01/04 13:07:58;;;;;;;17.38;10.23;;;;;;;;;;5051543;28;20029;-82
2021/01/04 13:10:24;;;;;;;18.88;10.57;;;;;;;;;;5049511;28;20037;-82
2021/01/04 13:12:50;;;;;;;16.77;9.95;;;;;;;;;;5042026;28;20033;-83
2021/01/04 13:15:16;;;;;;;14.57;9.10;;;;;;;;;;5037930;28;20026;-84
2021/01/04 13:17:43;;;;;;;14.07;10.20;;;;;;;;;;5051152;28;20026;-85
2021/01/04 13:20:10;;;;;;;14.07;8.38;;;;;;;;;;5047802;28;20018;-82
2021/01/04 13:22:36;;;;;;;17.42;9.52;;;;;;;;;;5050340;28;20032;-83
2021/01/04 13:25:02;;;;;;;14.43;9.40;;;;;;;;;;5040412;28;20097;-82
2021/01/04 13:27:29;;;;;;;14.32;9.55;;;;;;;;;;5043979;28;20064;-85
2021/01/04 13:29:55;;;;;;;16.55;9.88;;;;;;;;;;5047078;28;21294;-83
2021/01/04 13:32:21;;;;;;;16.90;9.02;;;;;;;;;;5050619;28;20006;-84
2021/01/04 13:34:47;;;;;;;14.98;8.27;;;;;;;;;;5051506;28;20238;-83
2021/01/04 13:37:14;;;;;;;13.00;7.50;;;;;;;;;;5072050;28;20076;-84
2021/01/04 13:39:41;;;;;;;10.40;6.55;;;;;;;;;;5052631;28;20032;-83
2021/01/04 13:42:07;;;;;;;17.38;8.60;;;;;;;;;;5033586;28;20376;-83
2021/01/04 13:44:33;;;;;;;11.75;7.72;;;;;;;;;;5049526;28;20032;-84
2021/01/04 13:47:04;;;;;;;17.52;7.47;;;;;;;;;;5051041;28;20037;-83
2021/01/04 13:49:30;;;;;;;15.40;8.50;;;;;;;;;;5045735;28;20119;-83
2021/01/04 13:51:56;;;;;;;18.02;8.50;;;;;;;;;;5033096;28;20028;-83
2021/01/04 13:54:22;;;;;;;13.27;8.20;;;;;;;;;;5029213;28;20431;-83
2021/01/04 13:56:49;;;;;;;13.77;9.07;;;;;;;;;;5046573;28;20079;-83
2021/01/04 13:59:16;;;;;;;14.40;8.15;;;;;;;;;;5051098;28;20021;-84
2021/01/04 14:01:42;;;;;;;12.77;8.55;;;;;;;;;;5053862;28;20028;-84
2021/01/04 14:04:11;;;;;;;14.48;8.25;;;;;;;;;;5053394;28;20148;-89
2021/01/04 14:06:42;;;;;;;14.90;9.18;;;;;;;;;;5034512;28;20028;-83
2021/01/04 14:09:09;;;;;;;20.38;10.82;;;;;;;;;;5030067;28;20021;-83
2021/01/04 14:11:35;;;;;;;15.75;9.02;;;;;;;;;;5035720;28;20031;-83
2021/01/04 14:14:02;;;;;;;19.20;10.35;;;;;;;;;;5047750;28;20714;-89
2021/01/04 14:16:28;;;;;;;18.48;10.05;;;;;;;;;;5034226;28;20029;-85
2021/01/04 14:18:55;;;;;;;17.20;10.73;;;;;;;;;;5030612;28;20033;-85
2021/01/04 14:21:22;;;;;;;18.98;9.88;;;;;;;;;;5051735;28;20025;-85
2021/01/04 14:23:48;;;;;;;18.20;10.98;;;;;;;;;;5050808;28;20074;-84
2021/01/04 14:26:34;;;;;;;16.27;9.88;;;;;;;;;;5048751;28;20029;-85
2021/01/04 14:29:01;;;;;;;16.27;9.45;;;;;;;;;;5047267;28;20025;-84
2021/01/04 14:31:36;;;;;;;16.67;9.40;;;;;;;;;;5034235;28;20109;-83
2021/01/04 14:34:02;;;;;;;13.88;8.25;;;;;;;;;;5049664;28;20033;-84
2021/01/04 14:36:28;;;;;;;18.63;8.73;;;;;;;;;;5048896;28;20091;-83
2021/01/04 14:38:54;;;;;;;17.95;8.13;;;;;;;;;;5045845;28;20091;-84
2021/01/04 14:41:20;;;;;;;13.13;7.88;;;;;;;;;;5032097;28;20029;-82
2021/01/04 14:43:46;;;;;;;14.13;8.13;;;;;;;;;;5026923;28;20496;-82
2021/01/04 14:46:17;;;;;;;13.95;7.65;;;;;;;;;;5046832;28;20040;-82